Time;durP1;ratioP1;P1;durP2;ratioP2;P2;SDS_P1;SDS_P2;PMS_P1;PMS_P2;Temp;Humidity;BMP_temperature;BMP_pressure;BME280_temperature;BME280_humidity;BME280_pressure;Samples;Min_cycle;Max_cycle;Signal;HPM_P1;HPM_P2
2022/12/21 00:01:17;;;;;;;32.25;11.30;;;;;;;0.09;100.00;95490.38;5068488;28;20044;-75
2022/12/21 00:03:44;;;;;;;24.10;10.27;;;;;;;0.04;100.00;95487.59;5066222;28;20041;-75
2022/12/21 00:06:10;;;;;;;25.20;10.43;;;;;;;-0.05;100.00;95484.41;5068281;28;20094;-75
2022/12/21 00:08:45;;;;;;;20.15;10.00;;;;;;;-0.09;100.00;95487.63;5070605;28;20037;-75
2022/12/21 00:11:12;;;;;;;22.42;10.38;;;;;;;0.03;100.00;95491.19;5072620;28;20048;-75
2022/12/21 00:13:38;;;;;;;21.00;8.88;;;;;;;0.03;100.00;95486.00;5063824;28;20040;-76
2022/12/21 00:16:08;;;;;;;21.77;9.88;;;;;;;0.03;100.00;95491.19;5068806;28;20117;-75
2022/12/21 00:18:35;;;;;;;18.67;9.55;;;;;;;0.02;100.00;95489.59;5066661;28;20549;-75
2022/12/21 00:21:13;;;;;;;19.77;9.75;;;;;;;-0.08;100.00;95486.63;5068064;28;20057;-76
2022/12/21 00:23:40;;;;;;;19.25;8.73;;;;;;;-0.01;100.00;95490.00;5068273;28;20040;-75
2022/12/21 00:26:07;;;;;;;22.90;9.57;;;;;;;-0.05;100.00;95491.41;5061802;28;20044;-77
2022/12/21 00:28:33;;;;;;;20.08;8.90;;;;;;;-0.10;100.00;95486.03;5058422;28;20517;-75
2022/12/21 00:31:14;;;;;;;23.58;9.98;;;;;;;-0.12;100.00;95493.22;5065871;28;20049;-75
2022/12/21 00:33:41;;;;;;;22.67;9.43;;;;;;;-0.12;100.00;95483.66;5067765;28;20059;-75
2022/12/21 00:36:09;;;;;;;20.88;9.45;;;;;;;-0.13;100.00;95486.44;5058436;28;20529;-75
2022/12/21 00:38:34;;;;;;;23.25;9.50;;;;;;;-0.06;100.00;95484.63;5072044;28;20123;-75
2022/12/21 00:41:04;;;;;;;22.13;9.40;;;;;;;-0.06;100.00;95485.44;5070726;28;20048;-75
2022/12/21 00:43:32;;;;;;;21.50;9.57;;;;;;;-0.11;100.00;95484.47;5065299;28;20052;-75
2022/12/21 00:45:58;;;;;;;21.95;9.13;;;;;;;-0.07;100.00;95485.63;5066165;28;20090;-74
2022/12/21 00:48:27;;;;;;;19.40;9.05;;;;;;;-0.06;100.00;95476.88;5067272;28;20040;-75
2022/12/21 00:50:53;;;;;;;17.88;8.63;;;;;;;-0.06;100.00;95487.22;5065702;28;20032;-75
2022/12/21 00:53:19;;;;;;;20.52;8.90;;;;;;;-0.10;100.00;95483.44;5061447;28;20104;-75
2022/12/21 00:55:55;;;;;;;17.40;7.75;;;;;;;-0.07;100.00;95486.44;5069769;28;20089;-74
2022/12/21 00:58:22;;;;;;;23.15;8.95;;;;;;;-0.15;100.00;95494.41;5068986;28;20032;-74
2022/12/21 01:00:47;;;;;;;18.00;8.27;;;;;;;-0.23;100.00;95485.06;5070976;28;20044;-75
2022/12/21 01:03:13;;;;;;;24.95;10.40;;;;;;;-0.29;100.00;95488.44;5059347;28;20757;-74
2022/12/21 01:05:38;;;;;;;23.85;9.05;;;;;;;-0.13;100.00;95492.41;5065375;28;20525;-75
2022/12/21 01:08:04;;;;;;;17.70;8.35;;;;;;;-0.10;100.00;95491.19;5061490;28;20041;-75
2022/12/21 01:10:30;;;;;;;20.75;9.57;;;;;;;-0.10;100.00;95496.38;5069346;28;20066;-75
2022/12/21 01:12:57;;;;;;;19.45;7.95;;;;;;;-0.14;100.00;95500.34;5069724;28;20413;-74
2022/12/21 01:15:23;;;;;;;20.48;9.25;;;;;;;-0.18;100.00;95503.34;5059318;28;20036;-75
2022/12/21 01:17:49;;;;;;;17.73;8.98;;;;;;;-0.22;100.00;95504.75;5060145;28;20417;-75
2022/12/21 01:20:15;;;;;;;23.60;9.90;;;;;;;-0.07;100.00;95514.06;5065291;28;20071;-75
2022/12/21 01:22:40;;;;;;;19.40;9.00;;;;;;;-0.11;100.00;95505.16;5071111;28;20045;-75
2022/12/21 01:25:06;;;;;;;19.52;8.98;;;;;;;-0.14;100.00;95505.53;5069471;28;20156;-75
2022/12/21 01:27:31;;;;;;;20.05;9.30;;;;;;;-0.14;100.00;95510.69;5060369;28;20118;-74
2022/12/21 01:29:57;;;;;;;20.38;9.02;;;;;;;-0.16;100.00;95510.91;5068300;28;20040;-74
2022/12/21 01:32:23;;;;;;;20.48;8.70;;;;;;;-0.22;100.00;95499.56;5064504;28;20040;-75
2022/12/21 01:34:48;;;;;;;21.98;8.57;;;;;;;-0.13;100.00;95501.94;5050877;28;20045;-75
2022/12/21 01:37:14;;;;;;;21.35;9.25;;;;;;;-0.12;100.00;95498.38;5061632;28;20079;-75
2022/12/21 01:39:39;;;;;;;16.25;8.20;;;;;;;-0.13;100.00;95486.44;5069495;28;20556;-75
2022/12/21 01:42:08;;;;;;;17.55;7.75;;;;;;;-0.19;100.00;95494.03;5069412;28;20106;-75
2022/12/21 01:45:02;;;;;;;19.00;8.50;;;;;;;-0.13;100.00;95486.44;5070797;28;20045;-74
2022/12/21 01:47:31;;;;;;;15.45;7.05;;;;;;;-0.13;100.00;95486.44;5063365;28;20036;-75
2022/12/21 01:50:02;;;;;;;13.88;7.75;;;;;;;-0.06;100.00;95482.03;5063912;28;20060;-75
2022/12/21 01:52:30;;;;;;;19.95;7.72;;;;;;;-0.02;100.00;95483.22;5069336;28;20524;-75
2022/12/21 01:55:02;;;;;;;16.67;7.70;;;;;;;-0.03;100.00;95468.69;5070083;28;20469;-75
2022/12/21 01:57:32;;;;;;;16.60;7.93;;;;;;;-0.06;100.00;95472.50;5064988;28;20063;-75
2022/12/21 01:59:59;;;;;;;15.75;7.22;;;;;;;-0.06;100.00;95477.69;5061355;28;20062;-75
2022/12/21 02:02:30;;;;;;;17.05;7.18;;;;;;;-0.13;100.00;95470.91;5068805;28;20044;-74
2022/12/21 02:05:05;;;;;;;16.75;7.90;;;;;;;-0.16;100.00;95466.16;5058812;28;20537;-75
2022/12/21 02:07:31;;;;;;;16.50;6.60;;;;;;;-0.11;100.00;95461.19;5068116;28;20071;-75
2022/12/21 02:09:57;;;;;;;16.50;6.85;;;;;;;0.09;100.00;95454.13;5070343;28;20490;-75
2022/12/21 02:12:23;;;;;;;14.82;6.88;;;;;;;0.11;100.00;95457.31;5068959;28;20538;-75
2022/12/21 02:14:49;;;;;;;16.77;7.43;;;;;;;0.07;100.00;95461.31;5057469;28;20048;-75
2022/12/21 02:17:27;;;;;;;16.23;6.88;;;;;;;-0.08;100.00;95463.34;5064954;28;20414;-75
2022/12/21 02:19:55;;;;;;;15.23;6.25;;;;;;;0.08;100.00;95465.47;5061689;28;20040;-75
2022/12/21 02:22:43;;;;;;;16.80;6.38;;;;;;;0.23;100.00;95459.25;5065200;28;20426;-75
2022/12/21 02:25:29;;;;;;;12.88;6.32;;;;;;;0.04;100.00;95459.13;5070231;28;20051;-75
2022/12/21 02:28:26;;;;;;;18.75;7.78;;;;;;;-0.08;100.00;95465.94;5058517;28;20592;-75
2022/12/21 02:31:07;;;;;;;15.38;6.15;;;;;;;0.08;100.00;95465.47;5064657;28;20079;-75
2022/12/21 02:33:53;;;;;;;13.60;6.55;;;;;;;0.02;100.00;95468.09;5067856;28;20036;-75
2022/12/21 02:36:38;;;;;;;16.05;6.55;;;;;;;-0.03;100.00;95471.28;5061391;28;20049;-75
2022/12/21 02:39:09;;;;;;;14.38;6.45;;;;;;;-0.02;100.00;95472.88;5063756;28;20142;-75
2022/12/21 02:42:09;;;;;;;12.05;6.18;;;;;;;0.00;100.00;95470.91;5066626;28;20056;-76
2022/12/21 02:44:49;;;;;;;13.73;5.93;;;;;;;-0.07;100.00;95470.09;5066778;28;20071;-76
2022/12/21 02:47:24;;;;;;;12.07;5.75;;;;;;;-0.09;100.00;95483.22;5058842;28;20040;-76
2022/12/21 02:49:59;;;;;;;13.48;5.88;;;;;;;-0.08;100.00;95489.22;5067438;28;20405;-76
2022/12/21 02:52:34;;;;;;;11.95;5.00;;;;;;;0.03;100.00;95486.00;5065855;28;20501;-76
2022/12/21 02:55:01;;;;;;;13.93;5.47;;;;;;;0.00;100.00;95491.59;5067519;28;20040;-76
2022/12/21 02:57:35;;;;;;;12.77;5.72;;;;;;;-0.03;100.00;95481.63;5050011;28;20484;-75
2022/12/21 03:00:05;;;;;;;14.80;5.63;;;;;;;0.01;100.00;95493.16;5071974;28;20040;-76
2022/12/21 03:06:28;;;;;;;20.67;5.38;;;;;;;0.05;100.00;95485.81;5060499;28;20582;-76
2022/12/21 03:09:26;;;;;;;10.23;4.40;;;;;;;0.03;100.00;95486.00;5072580;28;20047;-76
2022/12/21 03:12:21;;;;;;;9.95;4.88;;;;;;;0.05;100.00;95478.84;5047382;28;20114;-75
2022/12/21 03:15:04;;;;;;;10.07;4.57;;;;;;;0.05;100.00;95484.00;5064800;28;20409;-74
2022/12/21 03:17:43;;;;;;;11.27;5.03;;;;;;;0.05;100.00;95478.84;5061672;28;20032;-74
2022/12/21 03:20:19;;;;;;;9.77;4.85;;;;;;;0.04;100.00;95477.22;5063419;28;20501;-75
2022/12/21 03:22:59;;;;;;;12.15;5.30;;;;;;;0.00;100.00;95476.06;5070291;28;20045;-75
2022/12/21 03:25:32;;;;;;;10.65;4.75;;;;;;;-0.01;100.00;95469.31;5071655;28;20494;-75
2022/12/21 03:28:03;;;;;;;9.43;4.78;;;;;;;0.02;100.00;95484.41;5070933;28;20585;-75
2022/12/21 03:30:32;;;;;;;12.55;5.00;;;;;;;0.13;100.00;95481.19;5063846;28;20040;-76
2022/12/21 03:33:02;;;;;;;8.77;4.55;;;;;;;0.41;100.00;95481.91;5067968;28;20422;-75
2022/12/21 03:35:34;;;;;;;14.93;6.32;;;;;;;0.38;100.00;95482.31;5071413;28;20090;-75
2022/12/21 03:38:03;;;;;;;11.02;5.13;;;;;;;0.21;100.00;95476.78;5064925;28;20116;-74
2022/12/21 03:40:34;;;;;;;11.32;4.70;;;;;;;0.10;100.00;95481.63;5073301;28;20573;-75
2022/12/21 03:43:08;;;;;;;11.65;4.57;;;;;;;0.20;100.00;95490.72;5071462;28;20076;-76
2022/12/21 03:45:47;;;;;;;11.35;5.13;;;;;;;0.25;100.00;95488.34;5068414;28;20064;-75
2022/12/21 03:48:18;;;;;;;12.00;5.40;;;;;;;0.19;100.00;95479.59;5067872;28;20099;-75
2022/12/21 03:50:49;;;;;;;14.90;5.85;;;;;;;0.04;100.00;95471.28;5072127;28;20045;-75
2022/12/21 03:53:38;;;;;;;11.45;4.80;;;;;;;0.10;100.00;95466.09;5064854;28;20072;-75
2022/12/21 03:56:08;;;;;;;10.85;4.60;;;;;;;0.15;100.00;95458.50;5059914;28;20102;-75
2022/12/21 03:58:35;;;;;;;14.27;4.70;;;;;;;0.07;100.00;95456.16;5064309;28;20037;-75
2022/12/21 04:01:01;;;;;;;9.48;4.40;;;;;;;0.07;100.00;95456.16;5066458;28;20563;-74
2022/12/21 04:03:34;;;;;;;9.48;4.68;;;;;;;0.21;100.00;95461.28;5066820;28;20045;-74
2022/12/21 04:06:08;;;;;;;9.55;4.60;;;;;;;0.50;100.00;95471.09;5068057;28;20041;-74
2022/12/21 04:08:35;;;;;;;10.02;5.32;;;;;;;0.47;100.00;95471.50;5065311;28;20555;-75
2022/12/21 04:11:01;;;;;;;10.90;4.93;;;;;;;0.39;100.00;95463.97;5070456;28;20041;-74
2022/12/21 04:13:26;;;;;;;10.70;5.13;;;;;;;0.52;100.00;95469.09;5069191;28;20040;-74
2022/12/21 04:16:04;;;;;;;9.82;4.78;;;;;;;0.39;100.00;95469.16;5070554;28;20646;-75
2022/12/21 04:21:14;;;;;;;11.13;4.95;;;;;;;0.38;100.00;95472.75;5072367;28;20048;-75
2022/12/21 04:29:07;;;;;;;15.00;4.82;;;;;;;0.29;100.00;95468.81;5064164;28;20041;-74
2022/12/21 04:31:33;;;;;;;9.98;4.57;;;;;;;0.26;100.00;95470.00;5072289;28;20044;-75
2022/12/21 04:33:58;;;;;;;9.32;4.88;;;;;;;0.30;100.00;95470.38;5070957;28;20528;-74
2022/12/21 04:39:08;;;;;;;9.15;4.35;;;;;;;0.20;100.00;95462.25;5067162;28;20044;-74
2022/12/21 04:41:33;;;;;;;10.40;4.00;;;;;;;0.11;100.00;95467.66;5069296;28;20525;-74
2022/12/21 04:43:59;;;;;;;9.25;4.40;;;;;;;0.20;100.00;95459.66;5065201;28;20032;-75
2022/12/21 04:46:24;;;;;;;11.05;4.32;;;;;;;0.21;100.00;95456.88;5069938;28;20097;-74
2022/12/21 04:48:50;;;;;;;9.55;4.38;;;;;;;0.21;100.00;95450.91;5060858;28;20482;-75
2022/12/21 04:51:19;;;;;;;9.57;4.70;;;;;;;0.36;100.00;95456.63;5072002;28;20120;-74
2022/12/21 04:53:45;;;;;;;9.68;4.60;;;;;;;0.34;100.00;95461.22;5063964;28;20049;-74
2022/12/21 04:56:11;;;;;;;9.65;4.55;;;;;;;0.25;100.00;95462.44;5070287;28;20036;-75
2022/12/21 04:58:38;;;;;;;8.52;4.32;;;;;;;0.28;100.00;95468.00;5052921;28;20083;-73
2022/12/21 05:01:11;;;;;;;11.35;4.47;;;;;;;0.21;100.00;95461.28;5069859;28;20052;-74
2022/12/21 05:03:37;;;;;;;12.48;5.13;;;;;;;0.22;100.00;95468.81;5070077;28;20043;-75
2022/12/21 05:06:03;;;;;;;9.95;4.53;;;;;;;0.19;100.00;95463.25;5066288;28;20099;-75
2022/12/21 05:08:29;;;;;;;8.20;4.05;;;;;;;0.16;100.00;95465.25;5052801;28;20049;-75
2022/12/21 05:10:54;;;;;;;11.00;4.20;;;;;;;0.11;100.00;95467.66;5068742;28;20040;-75
2022/12/21 05:13:20;;;;;;;11.25;4.50;;;;;;;0.17;100.00;95471.22;5066082;28;20044;-76
2022/12/21 05:15:45;;;;;;;8.95;4.45;;;;;;;0.20;100.00;95470.03;5065199;28;20036;-76
2022/12/21 05:18:11;;;;;;;8.75;4.35;;;;;;;0.15;100.00;95463.66;5070160;28;20021;-73
2022/12/21 05:20:38;;;;;;;9.38;4.18;;;;;;;0.17;100.00;95455.69;5059868;28;20115;-75
2022/12/21 05:23:03;;;;;;;7.53;4.20;;;;;;;0.22;100.00;95473.22;5069467;28;20490;-75
2022/12/21 05:25:29;;;;;;;12.75;4.53;;;;;;;0.15;100.00;95474.00;5071132;28;20048;-75
2022/12/21 05:27:54;;;;;;;8.25;4.53;;;;;;;0.51;100.00;95472.69;5065403;28;20086;-75
2022/12/21 05:30:20;;;;;;;9.73;4.47;;;;;;;0.36;100.00;95479.94;5067346;28;20048;-75
2022/12/21 05:32:45;;;;;;;9.88;4.78;;;;;;;0.20;100.00;95470.03;5071452;28;20090;-75
2022/12/21 05:35:11;;;;;;;9.75;4.60;;;;;;;0.20;100.00;95485.56;5063917;28;20573;-75
2022/12/21 05:37:36;;;;;;;16.15;4.70;;;;;;;0.15;100.00;95466.25;5066771;28;20048;-74
2022/12/21 05:40:02;;;;;;;7.65;4.13;;;;;;;0.21;100.00;95476.78;5067624;28;20060;-75
2022/12/21 05:42:27;;;;;;;11.13;4.85;;;;;;;0.23;100.00;95469.59;5071140;28;20044;-74
2022/12/21 05:44:53;;;;;;;11.45;4.93;;;;;;;0.19;100.00;95469.25;5064289;28;20047;-75
2022/12/21 05:47:19;;;;;;;13.05;4.60;;;;;;;0.19;100.00;95478.78;5060809;28;20041;-75
2022/12/21 05:49:44;;;;;;;8.70;4.72;;;;;;;0.19;100.00;95482.19;5066126;28;20059;-75
2022/12/21 05:52:11;;;;;;;12.13;4.70;;;;;;;0.20;100.00;95475.19;5069495;28;20059;-74
2022/12/21 05:54:37;;;;;;;9.52;3.83;;;;;;;0.23;100.00;95485.13;5068113;28;20044;-75
2022/12/21 05:57:02;;;;;;;7.20;3.70;;;;;;;0.26;100.00;95482.13;5067225;28;20041;-75
2022/12/21 05:59:28;;;;;;;9.98;4.43;;;;;;;0.26;100.00;95489.91;5067985;28;20551;-75
2022/12/21 06:01:53;;;;;;;9.45;4.35;;;;;;;0.06;100.00;95485.59;5069224;28;20529;-73
2022/12/21 06:04:19;;;;;;;8.07;4.10;;;;;;;0.21;100.00;95487.94;5060272;28;20037;-75
2022/12/21 06:06:46;;;;;;;13.05;4.55;;;;;;;0.29;100.00;95474.00;5067343;28;20032;-75
2022/12/21 06:09:12;;;;;;;8.55;4.18;;;;;;;0.29;100.00;95474.00;5060268;28;20060;-74
2022/12/21 06:11:38;;;;;;;11.95;5.13;;;;;;;0.30;100.00;95480.72;5069139;28;20099;-74
2022/12/21 06:14:03;;;;;;;7.78;4.07;;;;;;;0.27;100.00;95486.31;5056860;28;20099;-75
2022/12/21 06:16:29;;;;;;;13.07;5.68;;;;;;;0.17;100.00;95484.97;5068927;28;20037;-75
2022/12/21 06:18:55;;;;;;;17.10;6.43;;;;;;;0.16;100.00;95475.63;5065450;28;20049;-74
2022/12/21 06:21:20;;;;;;;13.15;5.45;;;;;;;0.26;100.00;95484.72;5056505;28;20044;-75
2022/12/21 06:23:47;;;;;;;12.65;5.38;;;;;;;0.22;100.00;95483.56;5062226;28;20040;-75
2022/12/21 06:26:15;;;;;;;13.15;5.50;;;;;;;0.22;100.00;95478.41;5068101;28;20037;-74
2022/12/21 06:28:45;;;;;;;19.00;6.50;;;;;;;0.25;100.00;95483.16;5060332;28;20044;-77
2022/12/21 06:31:12;;;;;;;14.15;5.70;;;;;;;0.23;100.00;95491.13;5065747;28;20054;-76
2022/12/21 06:33:39;;;;;;;14.40;5.68;;;;;;;0.25;100.00;95488.34;5068928;28;20703;-76
2022/12/21 06:36:06;;;;;;;12.98;5.50;;;;;;;0.26;100.00;95492.50;5063570;28;20506;-76
2022/12/21 06:38:32;;;;;;;15.10;5.10;;;;;;;0.25;100.00;95493.50;5051126;28;20049;-77
2022/12/21 06:41:00;;;;;;;9.40;4.43;;;;;;;0.30;100.00;95496.25;5072460;28;20032;-76
2022/12/21 06:43:28;;;;;;;11.50;5.43;;;;;;;0.26;100.00;95501.06;5063812;28;20089;-76
2022/12/21 06:45:58;;;;;;;11.60;5.75;;;;;;;0.29;100.00;95510.22;5066547;28;20052;-76
2022/12/21 06:48:26;;;;;;;15.18;5.32;;;;;;;0.27;100.00;95499.25;5071250;28;20048;-77
2022/12/21 06:50:53;;;;;;;15.02;5.60;;;;;;;0.23;100.00;95495.50;5076714;28;20533;-76
2022/12/21 06:53:20;;;;;;;13.32;4.72;;;;;;;0.25;100.00;95498.69;5073155;28;20131;-76
2022/12/21 06:55:45;;;;;;;14.13;5.47;;;;;;;0.28;100.00;95508.63;5071225;28;20040;-76
2022/12/21 06:58:13;;;;;;;16.50;6.43;;;;;;;0.28;100.00;95503.44;5058857;28;20043;-75
2022/12/21 07:00:39;;;;;;;17.33;6.82;;;;;;;0.28;100.00;95503.44;5062131;28;20089;-76
2022/12/21 07:03:05;;;;;;;24.88;8.65;;;;;;;0.33;100.00;95511.38;5067851;28;20041;-77
2022/12/21 07:05:30;;;;;;;27.63;7.65;;;;;;;0.30;100.00;95506.63;5059156;28;20052;-76
2022/12/21 07:07:56;;;;;;;33.38;9.05;;;;;;;0.35;100.00;95501.63;5059193;28;20083;-76
2022/12/21 07:10:21;;;;;;;32.13;9.95;;;;;;;0.34;100.00;95500.03;5055212;28;20059;-75
2022/12/21 07:12:47;;;;;;;48.60;13.35;;;;;;;0.36;100.00;95500.66;5056803;28;20056;-76
2022/12/21 07:15:12;;;;;;;37.35;10.68;;;;;;;0.35;100.00;95493.88;5060939;28;20118;-76
2022/12/21 07:17:38;;;;;;;28.15;8.40;;;;;;;0.38;100.00;95503.81;5059262;28;20116;-75
2022/12/21 07:20:04;;;;;;;34.60;9.77;;;;;;;0.34;100.00;95510.41;5061751;28;20052;-76
2022/12/21 07:22:29;;;;;;;21.80;7.20;;;;;;;0.32;100.00;95507.22;5067932;28;20036;-76
2022/12/21 07:24:55;;;;;;;21.88;7.75;;;;;;;0.37;100.00;95506.59;5064592;28;20043;-76
2022/12/21 07:27:20;;;;;;;20.95;7.32;;;;;;;0.38;100.00;95503.81;5064835;28;20036;-74
2022/12/21 07:29:46;;;;;;;21.85;7.40;;;;;;;0.39;100.00;95510.59;5061016;28;20044;-73
2022/12/21 07:32:11;;;;;;;20.17;7.18;;;;;;;0.38;100.00;95503.81;5065835;28;20545;-74
2022/12/21 07:34:37;;;;;;;20.85;6.50;;;;;;;0.43;100.00;95511.78;5063367;28;20475;-74
2022/12/21 07:37:02;;;;;;;17.80;7.00;;;;;;;0.33;100.00;95507.03;5062309;28;20067;-75
2022/12/21 07:39:28;;;;;;;26.35;6.43;;;;;;;0.36;100.00;95500.66;5068082;28;20456;-74
2022/12/21 07:41:53;;;;;;;15.55;6.03;;;;;;;0.45;100.00;95507.16;5066775;28;20048;-74
2022/12/21 07:44:19;;;;;;;15.45;6.63;;;;;;;0.53;100.00;95506.13;5069328;28;20048;-75
2022/12/21 07:46:44;;;;;;;14.40;6.10;;;;;;;0.52;100.00;95510.53;5066868;28;20036;-75
2022/12/21 07:49:10;;;;;;;17.20;5.95;;;;;;;0.56;100.00;95504.94;5070876;28;20097;-76
2022/12/21 07:51:36;;;;;;;14.25;6.25;;;;;;;0.50;100.00;95515.13;5063092;28;20036;-75
2022/12/21 07:54:01;;;;;;;11.70;5.57;;;;;;;0.55;100.00;95508.50;5061655;28;20047;-76
2022/12/21 07:56:27;;;;;;;14.27;5.90;;;;;;;0.53;100.00;95500.94;5061408;28;20097;-74
2022/12/21 07:58:52;;;;;;;15.95;5.53;;;;;;;0.60;100.00;95500.94;5065237;28;20048;-72
2022/12/21 08:01:18;;;;;;;11.90;5.68;;;;;;;0.54;100.00;95504.34;5066228;28;20044;-75
2022/12/21 08:03:45;;;;;;;11.57;5.43;;;;;;;0.54;100.00;95501.75;5064507;28;20048;-75
2022/12/21 08:06:12;;;;;;;15.13;5.70;;;;;;;0.57;100.00;95501.34;5068375;28;20049;-74
2022/12/21 08:08:38;;;;;;;13.20;5.65;;;;;;;0.45;100.00;95499.41;5066391;28;20422;-73
2022/12/21 08:11:09;;;;;;;13.32;5.50;;;;;;;0.50;100.00;95504.78;5070329;28;20041;-72
2022/12/21 08:13:34;;;;;;;14.82;5.82;;;;;;;0.57;100.00;95506.53;5070139;28;20114;-75
2022/12/21 08:16:02;;;;;;;12.88;5.90;;;;;;;0.60;100.00;95506.13;5066580;28;20033;-74
2022/12/21 08:18:28;;;;;;;17.55;6.68;;;;;;;0.56;100.00;95504.94;5059388;28;20533;-75
2022/12/21 08:20:54;;;;;;;12.85;6.05;;;;;;;0.58;100.00;95500.34;5070719;28;20115;-73
2022/12/21 08:23:20;;;;;;;17.05;6.50;;;;;;;0.63;100.00;95505.69;5069654;28;20048;-75
2022/12/21 08:25:46;;;;;;;13.65;5.70;;;;;;;0.61;100.00;95505.13;5071056;28;20044;-75
2022/12/21 08:28:12;;;;;;;16.23;6.93;;;;;;;0.65;100.00;95503.72;5067523;28;20386;-73
2022/12/21 08:30:38;;;;;;;13.23;6.05;;;;;;;0.61;100.00;95502.53;5064016;28;20037;-73
2022/12/21 08:33:04;;;;;;;14.15;6.82;;;;;;;0.54;100.00;95496.59;5071501;28;20044;-75
2022/12/21 08:35:29;;;;;;;15.30;6.10;;;;;;;0.62;100.00;95504.13;5071999;28;20075;-73
2022/12/21 08:37:55;;;;;;;17.30;6.28;;;;;;;0.62;100.00;95499.72;5063183;28;20090;-74
2022/12/21 08:40:21;;;;;;;15.00;6.38;;;;;;;0.66;100.00;95505.28;5065154;28;20041;-75
2022/12/21 08:42:46;;;;;;;15.18;6.60;;;;;;;0.68;100.00;95498.13;5062793;28;20304;-74
2022/12/21 08:45:12;;;;;;;12.70;6.50;;;;;;;0.81;100.00;95508.41;5071597;28;20048;-74
2022/12/21 08:47:38;;;;;;;15.40;6.45;;;;;;;0.77;100.00;95502.03;5062568;28;20049;-73
2022/12/21 08:50:05;;;;;;;19.00;6.75;;;;;;;0.77;100.00;95499.44;5070581;28;20071;-73
2022/12/21 08:52:31;;;;;;;15.90;6.57;;;;;;;0.81;100.00;95508.41;5068651;28;20040;-73
2022/12/21 08:54:57;;;;;;;18.55;7.15;;;;;;;0.84;100.00;95502.78;5072118;28;20033;-74
2022/12/21 08:57:22;;;;;;;19.73;8.35;;;;;;;0.97;100.00;95501.16;5069514;28;20050;-74
2022/12/21 08:59:48;;;;;;;18.55;9.63;;;;;;;0.98;100.00;95502.75;5070089;28;20048;-74
2022/12/21 09:02:14;;;;;;;16.80;7.22;;;;;;;1.03;100.00;95495.13;5064209;28;20413;-72
2022/12/21 09:04:40;;;;;;;14.60;7.80;;;;;;;1.03;100.00;95508.06;5066494;28;20164;-72
2022/12/21 09:07:06;;;;;;;16.80;7.95;;;;;;;1.02;100.00;95498.69;5063727;28;20470;-72
2022/12/21 09:09:33;;;;;;;19.45;7.90;;;;;;;1.10;100.00;95495.09;5071052;28;20040;-72
2022/12/21 09:11:59;;;;;;;22.67;7.88;;;;;;;1.04;100.00;95501.91;5057620;28;21094;-74
2022/12/21 09:14:25;;;;;;;15.50;7.32;;;;;;;1.08;100.00;95497.06;5065179;28;20044;-74
2022/12/21 09:16:51;;;;;;;19.25;7.78;;;;;;;1.10;100.00;95501.06;5071668;28;20102;-73
2022/12/21 09:19:17;;;;;;;18.48;7.20;;;;;;;1.15;100.00;95496.03;5062853;28;20056;-74
2022/12/21 09:21:43;;;;;;;14.18;6.03;;;;;;;1.17;100.00;95486.25;5065702;28;20029;-73
2022/12/21 09:24:09;;;;;;;17.10;6.82;;;;;;;1.17;100.00;95488.84;5071820;28;20079;-72
2022/12/21 09:26:35;;;;;;;22.45;7.65;;;;;;;1.19;100.00;95494.63;5069702;28;20036;-72
2022/12/21 09:29:01;;;;;;;20.73;8.05;;;;;;;1.45;100.00;95482.47;5064197;28;20486;-74
2022/12/21 09:31:26;;;;;;;14.45;6.93;;;;;;;1.35;100.00;95472.56;5056653;28;20033;-72
2022/12/21 09:33:54;;;;;;;15.80;6.60;;;;;;;1.28;100.00;95482.19;5065483;28;20489;-72
2022/12/21 09:36:19;;;;;;;14.82;6.93;;;;;;;1.42;100.00;95472.50;5050464;28;20052;-72
2022/12/21 09:38:45;;;;;;;15.35;6.65;;;;;;;1.47;100.00;95472.66;5066006;28;20099;-75
2022/12/21 09:41:19;;;;;;;15.05;6.93;;;;;;;1.90;100.00;95474.47;5062586;28;20449;-72
2022/12/21 09:43:55;;;;;;;15.43;6.80;;;;;;;1.90;100.00;95474.47;5064979;28;20037;-71
2022/12/21 09:46:21;;;;;;;16.67;6.80;;;;;;;1.84;100.00;95475.34;5059204;28;20033;-73
2022/12/21 09:49:01;;;;;;;12.68;5.38;;;;;;;1.92;100.00;95470.88;5062726;28;20047;-72
2022/12/21 09:51:29;;;;;;;13.50;5.95;;;;;;;2.04;100.00;95474.31;5064279;28;20151;-72
2022/12/21 09:54:15;;;;;;;13.73;6.25;;;;;;;2.13;100.00;95480.03;5066099;28;20040;-72
2022/12/21 09:56:46;;;;;;;14.82;7.70;;;;;;;2.71;100.00;95469.13;5070258;28;20040;-74
2022/12/21 09:59:14;;;;;;;18.77;7.70;;;;;;;2.49;100.00;95466.22;5066203;28;20040;-73
2022/12/21 10:01:53;;;;;;;13.07;6.80;;;;;;;2.34;100.00;95471.81;5065923;28;20112;-73
2022/12/21 10:04:40;;;;;;;13.52;5.93;;;;;;;3.39;100.00;95468.97;5061881;28;20049;-74
2022/12/21 10:07:30;;;;;;;11.85;5.20;;;;;;;3.63;100.00;95468.00;5065333;28;20044;-74
2022/12/21 10:10:15;;;;;;;12.73;5.70;;;;;;;3.54;100.00;95474.53;5061213;28;20033;-73
2022/12/21 10:12:57;;;;;;;12.60;5.82;;;;;;;3.26;100.00;95470.78;5069673;28;20079;-74
2022/12/21 10:15:50;;;;;;;17.30;6.13;;;;;;;3.87;100.00;95465.38;5056769;28;20047;-72
2022/12/21 10:18:38;;;;;;;14.65;6.40;;;;;;;3.88;100.00;95466.97;5060861;28;20410;-72
2022/12/21 10:21:24;;;;;;;13.68;5.40;;;;;;;4.19;100.00;95470.19;5058645;28;20048;-72
2022/12/21 10:23:53;;;;;;;15.80;6.03;;;;;;;4.07;100.00;95469.44;5061186;28;20036;-72
2022/12/21 10:26:24;;;;;;;11.52;6.20;;;;;;;3.51;100.00;95477.59;5064462;28;20052;-72
2022/12/21 10:28:57;;;;;;;13.68;5.30;;;;;;;4.09;100.00;95467.38;5062049;28;20041;-72
2022/12/21 10:31:44;;;;;;;13.65;5.18;;;;;;;3.82;100.00;95467.84;5067395;28;20394;-71
2022/12/21 10:34:29;;;;;;;11.65;4.90;;;;;;;4.19;100.00;95472.78;5063795;28;20045;-72
2022/12/21 10:36:59;;;;;;;11.32;5.43;;;;;;;4.52;100.00;95468.75;5062556;28;20036;-72
2022/12/21 10:39:25;;;;;;;12.38;5.63;;;;;;;4.75;100.00;95469.69;5067473;28;20051;-72
2022/12/21 10:42:21;;;;;;;15.88;6.30;;;;;;;5.00;100.00;95466.75;5068629;28;20094;-73
2022/12/21 10:44:50;;;;;;;16.27;6.00;;;;;;;4.90;100.00;95462.16;5067815;28;20036;-71
2022/12/21 10:47:23;;;;;;;10.63;5.00;;;;;;;5.21;100.00;95462.66;5058298;28;20490;-74
2022/12/21 10:49:56;;;;;;;16.45;6.40;;;;;;;5.41;100.00;95458.81;5063728;28;20052;-73
2022/12/21 10:52:48;;;;;;;17.05;5.03;;;;;;;5.34;100.00;95446.72;5063313;28;20033;-74
2022/12/21 10:55:17;;;;;;;16.88;5.45;;;;;;;5.37;100.00;95446.25;5063479;28;20074;-73
2022/12/21 10:57:47;;;;;;;12.80;5.05;;;;;;;5.66;100.00;95443.53;5060167;28;20040;-74
2022/12/21 11:00:29;;;;;;;22.55;5.53;;;;;;;5.67;100.00;95439.09;5064792;28;20412;-74
2022/12/21 11:03:00;;;;;;;13.25;5.18;;;;;;;5.67;100.00;95439.88;5063265;28;20044;-74
2022/12/21 11:05:35;;;;;;;9.65;4.40;;;;;;;5.72;100.00;95437.34;5056853;28;20438;-74
2022/12/21 11:08:17;;;;;;;13.55;4.57;;;;;;;5.70;100.00;95434.19;5068022;28;20036;-74
2022/12/21 11:10:46;;;;;;;10.23;4.43;;;;;;;5.51;100.00;95440.69;5068642;28;20539;-74
2022/12/21 11:13:14;;;;;;;9.50;4.60;;;;;;;5.46;100.00;95444.00;5067423;28;20090;-74
2022/12/21 11:15:52;;;;;;;9.55;4.40;;;;;;;5.37;100.00;95425.34;5068681;28;20040;-73
2022/12/21 11:18:33;;;;;;;18.98;5.15;;;;;;;5.53;100.00;95438.63;5063243;28;20036;-73
2022/12/21 11:21:00;;;;;;;9.43;4.72;;;;;;;5.47;100.00;95429.13;5064126;28;20036;-74
2022/12/21 11:23:26;;;;;;;11.55;4.70;;;;;;;5.16;100.00;95423.47;5070747;28;20040;-73
2022/12/21 11:25:54;;;;;;;12.48;4.95;;;;;;;4.98;100.00;95414.81;5065150;28;20064;-73
2022/12/21 11:28:21;;;;;;;14.55;5.30;;;;;;;4.70;100.00;95415.66;5072960;28;20521;-73
2022/12/21 11:31:03;;;;;;;12.02;4.22;;;;;;;4.63;100.00;95405.38;5068068;28;20461;-75
2022/12/21 11:33:29;;;;;;;8.95;4.40;;;;;;;4.54;100.00;95404.16;5070008;28;20413;-74
2022/12/21 11:36:27;;;;;;;13.30;4.50;;;;;;;4.86;100.00;95398.47;5068387;28;20120;-72
2022/12/21 11:38:53;;;;;;;8.15;4.13;;;;;;;4.47;100.00;95401.69;5054939;28;20057;-72
2022/12/21 11:41:27;;;;;;;10.52;5.18;;;;;;;4.46;100.00;95394.13;5069574;28;20037;-72
2022/12/21 11:43:54;;;;;;;10.30;4.55;;;;;;;4.24;100.00;95392.16;5063280;28;20039;-71
2022/12/21 11:46:50;;;;;;;12.90;4.95;;;;;;;4.10;100.00;95385.63;5068921;28;20112;-72
2022/12/21 11:49:46;;;;;;;8.00;4.15;;;;;;;3.95;100.00;95389.53;5068371;28;20040;-72
2022/12/21 11:52:14;;;;;;;11.48;4.38;;;;;;;3.82;100.00;95389.75;5071822;28;20055;-72